This is the latest recevied weather packets stored in our database for station/object OE-11399. If no packets are shown the sender has not sent any weather packets the latest 10 day(s).
| Time | Temp. | Humidity | Pressure | Rain* | Wind** | Luminosity | Snow |
|---|---|---|---|---|---|---|---|
| 1787949327 | 20° C | 68% | 850.6 hPa | 0 mm | - | 0 W/m² | - |
| 1787948727 | 20° C | 67% | 850.5 hPa | 0 mm | - | 0 W/m² | - |
| 1787947900 | 20° C | 67% | 850.3 hPa | 0 mm | - | 0 W/m² | - |
| 1787947526 | 20.56° C | 67% | 850.1 hPa | 0 mm | - | 0 W/m² | - |
| 1787946927 | 20.56° C | 65% | 850.6 hPa | 0 mm | - | 0 W/m² | - |
| 1787946101 | 20.56° C | 65% | 850.4 hPa | 0 mm | - | 0 W/m² | - |
| 1787945727 | 21.11° C | 62% | 850.4 hPa | 0 mm | - | 0 W/m² | - |
| 1787945126 | 21.67° C | 62% | 850.4 hPa | 0 mm | - | 0 W/m² | - |
| 1787944300 | 22.78° C | 56% | 850.7 hPa | 0 mm | - | 0 W/m² | - |
| 1787943927 | 22.22° C | 60% | 850.7 hPa | 0 mm | - | 0 W/m² | - |
| 1787943326 | 22.22° C | 60% | 850.7 hPa | 0 mm | - | 0 W/m² | - |
| 1787942500 | 22.78° C | 56% | 850.6 hPa | 0 mm | - | 0 W/m² | - |
| 1787941518 | 22.78° C | 56% | 850.6 hPa | 0 mm | - | 0 W/m² | - |
| 1787940700 | 23.33° C | 58% | 850.7 hPa | 0 mm | - | 0 W/m² | - |
| 1787940326 | 23.33° C | 57% | 850.9 hPa | 0 mm | - | 0 W/m² | - |
| 1787939726 | 23.89° C | 56% | 850.6 hPa | 0 mm | - | 0 W/m² | - |
| 1787938900 | 24.44° C | 55% | 850.5 hPa | 0 mm | - | 0 W/m² | - |
| 1787938527 | 25° C | 51% | 850.6 hPa | 0 mm | - | 7 W/m² | - |
| 1787937927 | 25.56° C | 51% | 851 hPa | 0 mm | - | 7 W/m² | - |
| 1787937100 | 25.56° C | 54% | 851 hPa | 0 mm | - | 15 W/m² | - |
| 1787936726 | 26.67° C | 48% | 850.9 hPa | 0 mm | - | 29 W/m² | - |
| 1787936126 | 27.22° C | 44% | 850.9 hPa | 0 mm | - | 51 W/m² | - |
| 1787935300 | 27.22° C | 46% | 851.2 hPa | 0 mm | - | 81 W/m² | - |
| 1787934927 | 27.22° C | 48% | 851.2 hPa | 0 mm | - | 103 W/m² | - |
| 1787934327 | 27.78° C | 40% | 851.2 hPa | 0 mm | - | 95 W/m² | - |
* Rain latest hour (hover to see other rain measurements)
** Current wind speed in m/s (hover to see current wind gust speed)